createdAt,value
2022-10-26T00:01:18.889Z,56.38
2022-10-26T00:03:48.039Z,56.75
2022-10-26T00:06:19.197Z,56.61
2022-10-26T00:08:48.314Z,56.87
2022-10-26T00:11:17.616Z,55.89
2022-10-26T00:13:46.761Z,55.95
2022-10-26T00:16:17.281Z,55.68
2022-10-26T00:18:45.988Z,56.58
2022-10-26T00:21:14.773Z,56.28
2022-10-26T00:23:44.472Z,56.85
2022-10-26T00:26:13.421Z,56.69
2022-10-26T00:28:41.743Z,56.96
2022-10-26T00:31:14.314Z,56.85
2022-10-26T00:33:43.114Z,57.28
2022-10-26T00:36:14.009Z,57.40
2022-10-26T00:38:46.223Z,56.31
2022-10-26T00:41:16.191Z,56.86
2022-10-26T00:43:44.398Z,56.86
2022-10-26T00:46:17.303Z,56.28
2022-10-26T00:48:48.510Z,55.95
2022-10-26T00:51:23.934Z,56.78
2022-10-26T00:53:55.489Z,56.23
2022-10-26T00:56:24.613Z,56.19
2022-10-26T00:58:53.578Z,57.02
2022-10-26T01:01:22.074Z,58.14
2022-10-26T01:03:51.061Z,59.64
2022-10-26T01:06:20.234Z,59.96
2022-10-26T01:08:49.741Z,60.05
2022-10-26T01:11:19.967Z,59.77
2022-10-26T01:13:50.017Z,59.00
2022-10-26T01:16:32.399Z,58.81
2022-10-26T01:19:23.615Z,58.52
2022-10-26T01:21:57.556Z,59.20
2022-10-26T01:24:47.669Z,58.82
2022-10-26T01:27:35.563Z,59.15
2022-10-26T01:30:25.224Z,59.91
2022-10-26T01:33:14.565Z,60.81
2022-10-26T01:35:50.069Z,59.99
2022-10-26T01:38:27.153Z,60.16
2022-10-26T01:41:03.773Z,59.61
2022-10-26T01:43:35.789Z,59.50
2022-10-26T01:46:07.666Z,58.97
2022-10-26T01:48:37.784Z,58.25
2022-10-26T01:51:07.609Z,58.24
2022-10-26T01:53:35.899Z,60.38
2022-10-26T01:56:04.446Z,62.30
2022-10-26T01:58:57.877Z,60.97
2022-10-26T02:01:55.332Z,60.87
2022-10-26T02:04:36.780Z,63.62
2022-10-26T02:07:12.618Z,62.32
2022-10-26T02:09:54.974Z,61.30
2022-10-26T02:12:31.741Z,60.71
2022-10-26T02:15:06.389Z,60.74
2022-10-26T02:17:44.321Z,60.89
2022-10-26T02:20:18.201Z,62.98
2022-10-26T02:22:49.925Z,62.55
2022-10-26T02:25:21.877Z,62.13
2022-10-26T02:27:54.522Z,61.54
2022-10-26T02:30:23.189Z,61.49
2022-10-26T02:32:55.793Z,61.37
2022-10-26T02:35:30.762Z,62.03
2022-10-26T02:38:01.473Z,63.04
2022-10-26T02:40:31.170Z,63.11
2022-10-26T02:43:02.121Z,63.20
2022-10-26T02:45:36.809Z,63.49
2022-10-26T02:48:07.444Z,62.66
2022-10-26T02:50:44.934Z,61.69
2022-10-26T02:53:23.489Z,62.01
2022-10-26T02:55:52.725Z,63.06
2022-10-26T02:58:26.337Z,63.23
2022-10-26T03:00:55.236Z,64.49
2022-10-26T03:03:25.034Z,65.12
2022-10-26T03:05:53.457Z,64.28
2022-10-26T03:08:21.805Z,63.54
2022-10-26T03:10:50.056Z,64.47
2022-10-26T03:13:18.318Z,63.64
2022-10-26T03:15:46.663Z,63.06
2022-10-26T03:18:14.866Z,63.36
2022-10-26T03:20:46.719Z,63.76
2022-10-26T03:23:14.911Z,63.24
2022-10-26T03:25:43.162Z,63.26
2022-10-26T03:28:11.445Z,63.34
2022-10-26T03:30:39.681Z,63.02
2022-10-26T03:33:08.081Z,62.94
2022-10-26T03:35:36.366Z,64.05
2022-10-26T03:38:05.993Z,62.53
2022-10-26T03:40:35.712Z,63.51
2022-10-26T03:43:03.996Z,65.12
2022-10-26T03:45:32.334Z,64.25
2022-10-26T03:48:00.540Z,63.23
2022-10-26T03:50:28.828Z,62.70
2022-10-26T03:52:56.976Z,63.16
2022-10-26T03:55:26.561Z,62.94
2022-10-26T03:57:54.824Z,63.83
2022-10-26T04:00:23.156Z,63.46
2022-10-26T04:02:56.786Z,64.27
2022-10-26T04:05:25.857Z,65.27
2022-10-26T04:07:54.763Z,64.27
2022-10-26T04:10:23.213Z,63.47
2022-10-26T04:12:52.892Z,66.20
2022-10-26T04:15:21.585Z,62.97
2022-10-26T04:17:50.190Z,63.38
2022-10-26T04:20:18.689Z,66.48
2022-10-26T04:22:46.853Z,69.42
2022-10-26T04:25:15.103Z,73.41
2022-10-26T04:27:43.434Z,72.04
2022-10-26T04:30:14.475Z,70.34
2022-10-26T04:32:42.739Z,67.82
2022-10-26T04:35:13.299Z,67.60
2022-10-26T04:37:43.783Z,67.21
2022-10-26T04:40:12.845Z,65.87
2022-10-26T04:42:44.837Z,65.87
2022-10-26T04:45:15.957Z,65.18
2022-10-26T04:47:44.626Z,66.06
2022-10-26T04:50:14.593Z,65.92
2022-10-26T04:52:42.831Z,66.23
2022-10-26T04:55:11.221Z,65.28
2022-10-26T04:57:39.473Z,65.74
2022-10-26T05:00:08.597Z,66.31
2022-10-26T05:02:38.244Z,66.88
2022-10-26T05:05:08.841Z,65.48
2022-10-26T05:07:39.562Z,64.40
2022-10-26T05:10:08.743Z,64.80
2022-10-26T05:12:37.040Z,67.24
2022-10-26T05:15:08.499Z,66.94
2022-10-26T05:17:38.380Z,66.55
2022-10-26T05:20:10.960Z,66.15
2022-10-26T05:22:40.320Z,65.11
2022-10-26T05:25:09.463Z,64.81
2022-10-26T05:27:37.744Z,64.86
2022-10-26T05:32:41.022Z,64.61
2022-10-26T05:35:09.752Z,64.98
2022-10-26T05:37:38.017Z,65.49
2022-10-26T05:40:07.452Z,63.83
2022-10-26T05:42:35.748Z,62.30
2022-10-26T05:45:03.964Z,62.33
2022-10-26T05:47:32.308Z,61.92
2022-10-26T05:50:01.988Z,63.09
2022-10-26T05:52:30.233Z,62.21
2022-10-26T05:54:58.517Z,63.37
2022-10-26T05:57:27.425Z,62.50
2022-10-26T05:59:56.256Z,61.67
2022-10-26T06:02:34.133Z,60.52
2022-10-26T06:05:06.288Z,60.18
2022-10-26T06:07:35.133Z,58.13
2022-10-26T06:10:03.921Z,56.73
2022-10-26T06:12:32.784Z,56.94
2022-10-26T06:15:01.652Z,56.85
2022-10-26T06:17:40.588Z,57.64
2022-10-26T06:20:30.373Z,54.96
2022-10-26T06:23:11.826Z,54.84
2022-10-26T06:25:48.216Z,54.23
2022-10-26T06:28:28.653Z,54.24
2022-10-26T06:30:58.683Z,54.93
2022-10-26T06:33:30.267Z,54.40
2022-10-26T06:36:13.580Z,54.35
2022-10-26T06:38:44.570Z,53.53
2022-10-26T06:41:16.487Z,52.54
2022-10-26T06:43:45.624Z,52.32
2022-10-26T06:46:24.009Z,51.58
2022-10-26T06:48:59.673Z,48.79
2022-10-26T06:51:32.130Z,47.26
2022-10-26T06:54:06.393Z,47.78
2022-10-26T06:56:36.255Z,49.05
2022-10-26T06:59:14.200Z,50.74
2022-10-26T07:01:42.554Z,50.95
2022-10-26T07:04:10.916Z,51.09
2022-10-26T07:06:40.646Z,51.01
2022-10-26T07:09:08.917Z,51.40
2022-10-26T07:11:37.161Z,51.31
2022-10-26T07:14:05.450Z,48.92
2022-10-26T07:16:33.765Z,48.75
2022-10-26T07:19:02.012Z,47.11
2022-10-26T07:21:30.243Z,46.63
2022-10-26T07:23:59.946Z,46.72
2022-10-26T07:26:28.458Z,45.21
2022-10-26T07:28:57.627Z,43.56
2022-10-26T07:31:26.646Z,44.16
2022-10-26T07:33:55.053Z,42.69
2022-10-26T07:36:23.618Z,43.31
2022-10-26T07:38:54.096Z,41.93
2022-10-26T07:41:23.696Z,39.40
2022-10-26T07:43:51.954Z,38.09
2022-10-26T07:46:20.194Z,39.46
2022-10-26T07:48:48.444Z,37.89
2022-10-26T07:51:16.770Z,37.98
2022-10-26T07:53:45.084Z,37.29
2022-10-26T07:56:13.698Z,37.11
2022-10-26T07:58:43.328Z,35.98
2022-10-26T08:01:13.556Z,36.51
2022-10-26T08:03:42.443Z,34.94
2022-10-26T08:06:11.119Z,35.64
2022-10-26T08:08:42.446Z,35.52
2022-10-26T08:11:13.345Z,34.86
2022-10-26T08:13:43.019Z,34.76
2022-10-26T08:16:11.462Z,34.12
2022-10-26T08:18:39.902Z,34.69
2022-10-26T08:21:13.658Z,34.34
2022-10-26T08:23:46.436Z,33.82
2022-10-26T08:26:14.741Z,33.29
2022-10-26T08:28:44.329Z,32.97
2022-10-26T08:31:12.692Z,33.30
2022-10-26T08:33:44.865Z,32.15
2022-10-26T08:36:14.795Z,31.48
2022-10-26T08:38:43.044Z,31.29
2022-10-26T08:41:11.761Z,30.92
2022-10-26T08:43:46.655Z,31.49
2022-10-26T08:46:18.759Z,31.37
2022-10-26T08:48:51.537Z,30.75
2022-10-26T08:51:24.625Z,30.37
2022-10-26T08:53:58.413Z,30.97
2022-10-26T08:56:28.820Z,29.89
2022-10-26T08:59:02.729Z,29.40
2022-10-26T09:01:33.484Z,29.46
2022-10-26T09:04:04.102Z,30.05
2022-10-26T09:06:43.241Z,30.15
2022-10-26T09:09:18.977Z,28.82
2022-10-26T09:12:00.970Z,28.85
2022-10-26T09:14:43.598Z,28.97
2022-10-26T09:17:20.803Z,29.12
2022-10-26T09:20:27.841Z,27.95
2022-10-26T09:23:02.355Z,28.29
2022-10-26T09:25:39.633Z,28.12
2022-10-26T09:28:15.605Z,28.04
2022-10-26T09:30:47.490Z,27.25
2022-10-26T09:33:18.262Z,27.38
2022-10-26T09:35:51.322Z,25.49
2022-10-26T09:38:26.448Z,26.11
2022-10-26T09:41:01.204Z,25.19
2022-10-26T09:43:34.411Z,26.54
2022-10-26T09:46:04.199Z,25.48
2022-10-26T09:48:38.400Z,24.97
2022-10-26T09:51:07.067Z,25.86
2022-10-26T09:53:35.313Z,25.89
2022-10-26T09:56:08.164Z,25.16
2022-10-26T09:58:41.981Z,25.27
2022-10-26T10:01:22.931Z,24.46
2022-10-26T10:04:11.713Z,24.36
2022-10-26T10:06:40.113Z,24.30
2022-10-26T10:09:12.337Z,24.42
2022-10-26T10:11:41.693Z,25.54
2022-10-26T10:14:15.121Z,25.69
2022-10-26T10:16:53.089Z,23.50
2022-10-26T10:19:25.976Z,24.17
2022-10-26T10:21:58.176Z,24.23
2022-10-26T10:24:29.148Z,23.96
2022-10-26T10:27:00.122Z,23.68
2022-10-26T10:29:28.824Z,23.01
2022-10-26T10:32:00.196Z,22.94
2022-10-26T10:34:29.181Z,22.60
2022-10-26T10:36:57.839Z,21.83
2022-10-26T10:39:37.274Z,21.97
2022-10-26T10:42:07.755Z,21.18
2022-10-26T10:44:36.384Z,22.41
2022-10-26T10:47:07.854Z,22.32
2022-10-26T10:49:36.494Z,21.56
2022-10-26T10:52:05.005Z,21.52
2022-10-26T10:54:36.081Z,21.56
2022-10-26T10:57:16.534Z,20.92
2022-10-26T10:59:52.026Z,20.89
2022-10-26T11:03:04.074Z,21.46
2022-10-26T11:05:48.197Z,20.34
2022-10-26T11:08:22.392Z,20.38
2022-10-26T11:10:55.151Z,20.65
2022-10-26T11:13:28.425Z,19.47
2022-10-26T11:16:03.018Z,19.15
2022-10-26T11:18:37.612Z,19.80
2022-10-26T11:21:16.419Z,20.81
2022-10-26T11:23:49.792Z,20.57
2022-10-26T11:26:26.338Z,21.20
2022-10-26T11:29:01.089Z,21.50
2022-10-26T11:31:33.729Z,21.29
2022-10-26T11:34:19.184Z,20.98
2022-10-26T11:36:54.282Z,20.32
2022-10-26T11:39:30.280Z,20.08
2022-10-26T11:42:07.273Z,20.25
2022-10-26T11:44:41.372Z,20.33
2022-10-26T11:47:16.293Z,21.16
2022-10-26T11:49:51.541Z,20.42
2022-10-26T11:52:23.844Z,21.50
2022-10-26T11:54:55.572Z,20.31
2022-10-26T11:57:25.277Z,20.64
2022-10-26T11:59:56.373Z,20.86
2022-10-26T12:02:26.244Z,21.65
2022-10-26T12:05:01.186Z,20.59
2022-10-26T12:07:33.377Z,21.61
2022-10-26T12:10:03.422Z,21.44
2022-10-26T12:12:39.187Z,20.33
2022-10-26T12:15:19.485Z,20.88
2022-10-26T12:17:54.135Z,19.73
2022-10-26T12:21:07.895Z,20.05
2022-10-26T12:23:41.023Z,20.87
2022-10-26T12:26:43.032Z,20.74
2022-10-26T12:29:30.167Z,22.02
2022-10-26T12:31:58.847Z,21.04
2022-10-26T12:35:00.909Z,22.27
2022-10-26T12:37:37.067Z,22.01
2022-10-26T12:40:40.991Z,22.49
2022-10-26T12:43:38.905Z,21.41
2022-10-26T12:46:43.637Z,21.84
2022-10-26T12:49:57.401Z,22.32
2022-10-26T12:52:52.373Z,21.85
2022-10-26T12:56:05.564Z,21.35
2022-10-26T12:59:19.593Z,21.89
2022-10-26T13:02:22.898Z,21.87
2022-10-26T13:05:35.835Z,22.38
2022-10-26T13:08:08.354Z,22.00
2022-10-26T13:10:38.466Z,22.42
2022-10-26T13:13:09.022Z,21.78
2022-10-26T13:15:42.238Z,21.33
2022-10-26T13:18:12.208Z,21.58
2022-10-26T13:20:54.684Z,21.04
2022-10-26T13:23:27.648Z,20.82
2022-10-26T13:26:09.559Z,21.06
2022-10-26T13:28:50.263Z,21.31
2022-10-26T13:31:56.583Z,22.16
2022-10-26T13:34:27.764Z,22.03
2022-10-26T13:37:08.716Z,21.49
2022-10-26T13:39:41.852Z,22.67
2022-10-26T13:42:17.008Z,23.17
2022-10-26T13:44:52.588Z,23.88
2022-10-26T13:47:29.071Z,23.87
2022-10-26T13:50:01.052Z,23.93
2022-10-26T13:52:34.235Z,24.60
2022-10-26T13:55:10.379Z,26.27
2022-10-26T13:57:43.538Z,27.13
2022-10-26T14:00:18.846Z,27.24
2022-10-26T14:02:47.758Z,28.20
2022-10-26T14:05:18.775Z,27.27
2022-10-26T14:07:52.689Z,27.48
2022-10-26T14:10:29.513Z,28.90
2022-10-26T14:12:58.985Z,29.30
2022-10-26T14:15:31.489Z,28.69
2022-10-26T14:18:03.147Z,28.76
2022-10-26T14:20:33.444Z,29.95
2022-10-26T14:23:01.717Z,30.04
2022-10-26T14:25:42.142Z,30.88
2022-10-26T14:28:23.682Z,32.69
2022-10-26T14:30:52.572Z,31.89
2022-10-26T14:33:24.349Z,33.01
2022-10-26T14:35:53.103Z,33.57
2022-10-26T14:38:26.563Z,34.26
2022-10-26T14:40:57.731Z,34.51
2022-10-26T14:43:27.389Z,34.88
2022-10-26T14:45:57.433Z,35.25
2022-10-26T14:48:30.144Z,36.02
2022-10-26T14:51:07.933Z,36.40
2022-10-26T14:53:39.214Z,36.18
2022-10-26T14:56:22.844Z,35.62
2022-10-26T14:58:51.598Z,36.15
2022-10-26T15:01:36.356Z,36.92
2022-10-26T15:04:07.251Z,37.16
2022-10-26T15:06:41.161Z,37.13
2022-10-26T15:09:33.212Z,37.22
2022-10-26T15:12:06.017Z,37.40
2022-10-26T15:14:35.820Z,37.52
2022-10-26T15:17:04.514Z,38.04
2022-10-26T15:19:32.985Z,38.66
2022-10-26T15:22:01.330Z,39.34
2022-10-26T15:24:37.460Z,39.06
2022-10-26T15:27:17.412Z,39.25
2022-10-26T15:29:47.145Z,38.33
2022-10-26T15:32:28.483Z,39.21
2022-10-26T15:35:22.197Z,38.75
2022-10-26T15:37:51.785Z,39.04
2022-10-26T15:40:20.531Z,38.58
2022-10-26T15:42:52.160Z,40.90
2022-10-26T15:45:23.174Z,41.32
2022-10-26T15:47:53.349Z,41.52
2022-10-26T15:50:24.176Z,42.69
2022-10-26T15:52:57.824Z,41.98
2022-10-26T15:55:26.101Z,41.89
2022-10-26T15:57:55.744Z,41.20
2022-10-26T16:00:24.169Z,41.21
2022-10-26T16:02:52.452Z,41.59
2022-10-26T16:05:20.770Z,41.27
2022-10-26T16:07:49.793Z,41.73
2022-10-26T16:10:22.920Z,41.89
2022-10-26T16:12:51.312Z,42.08
2022-10-26T16:15:23.147Z,41.93
2022-10-26T16:17:52.471Z,42.06
2022-10-26T16:20:23.982Z,42.27
2022-10-26T16:22:53.810Z,42.83
2022-10-26T16:25:24.492Z,42.86
2022-10-26T16:27:54.159Z,44.12
2022-10-26T16:30:29.449Z,44.12
2022-10-26T16:32:58.885Z,45.10
2022-10-26T16:35:27.240Z,44.47
2022-10-26T16:37:55.541Z,44.22
2022-10-26T16:40:23.865Z,44.09
2022-10-26T16:42:52.550Z,44.59
2022-10-26T16:45:20.981Z,46.73
2022-10-26T16:47:51.001Z,45.72
2022-10-26T16:50:22.228Z,46.25
2022-10-26T16:52:50.484Z,45.58
2022-10-26T16:55:24.585Z,45.42
2022-10-26T16:57:53.068Z,45.31
2022-10-26T17:00:21.450Z,44.99
2022-10-26T17:02:51.116Z,45.51
2022-10-26T17:05:19.361Z,46.41
2022-10-26T17:07:48.855Z,46.98
2022-10-26T17:10:17.550Z,48.67
2022-10-26T17:12:45.812Z,50.33
2022-10-26T17:15:17.255Z,50.83
2022-10-26T17:17:48.144Z,51.29
2022-10-26T17:20:18.395Z,49.27
2022-10-26T17:22:46.739Z,49.19
2022-10-26T17:25:15.116Z,50.16
2022-10-26T17:27:46.441Z,49.22
2022-10-26T17:30:15.881Z,49.95
2022-10-26T17:32:44.337Z,50.87
2022-10-26T17:35:13.536Z,50.49
2022-10-26T17:37:43.362Z,51.19
2022-10-26T17:40:12.651Z,52.70
2022-10-26T17:42:41.372Z,51.76
2022-10-26T17:45:11.234Z,50.70
2022-10-26T17:47:40.028Z,51.83
2022-10-26T17:50:09.474Z,53.42
2022-10-26T17:52:38.340Z,56.22
2022-10-26T17:55:08.551Z,54.08
2022-10-26T17:57:37.629Z,53.76
2022-10-26T18:00:06.575Z,55.20
2022-10-26T18:02:37.711Z,53.67
2022-10-26T18:05:07.595Z,54.32
2022-10-26T18:07:37.156Z,54.94
2022-10-26T18:10:19.607Z,55.47
2022-10-26T18:12:55.925Z,54.94
2022-10-26T18:15:25.176Z,55.71
2022-10-26T18:17:58.187Z,55.16
2022-10-26T18:20:28.942Z,55.23
2022-10-26T18:22:57.765Z,55.25
2022-10-26T18:25:27.612Z,55.01
2022-10-26T18:27:56.342Z,53.61
2022-10-26T18:30:24.705Z,52.40
2022-10-26T18:32:54.085Z,51.97
2022-10-26T18:35:23.361Z,51.54
2022-10-26T18:37:51.826Z,52.75
2022-10-26T18:40:20.429Z,52.82
2022-10-26T18:42:50.070Z,51.30
2022-10-26T18:45:18.490Z,53.23
2022-10-26T18:47:46.736Z,52.03
2022-10-26T18:50:15.195Z,52.22
2022-10-26T18:52:43.457Z,52.25
2022-10-26T18:55:11.801Z,52.78
2022-10-26T18:57:40.233Z,53.21
2022-10-26T19:00:11.332Z,54.68
2022-10-26T19:02:39.583Z,54.17
2022-10-26T19:05:08.853Z,52.65
2022-10-26T19:07:39.165Z,53.34
2022-10-26T19:10:08.723Z,53.57
2022-10-26T19:12:36.996Z,53.22
2022-10-26T19:15:05.818Z,53.11
2022-10-26T19:17:35.686Z,52.54
2022-10-26T19:20:04.165Z,52.75
2022-10-26T19:22:32.428Z,52.57
2022-10-26T19:25:00.643Z,54.76
2022-10-26T19:27:28.869Z,54.60
2022-10-26T19:29:57.160Z,53.95
2022-10-26T19:32:28.331Z,53.26
2022-10-26T19:34:58.038Z,55.44
2022-10-26T19:37:29.081Z,56.35
2022-10-26T19:39:57.402Z,56.71
2022-10-26T19:42:25.643Z,57.00
2022-10-26T19:44:53.944Z,57.72
2022-10-26T19:47:22.216Z,57.37
2022-10-26T19:49:50.463Z,57.95
2022-10-26T19:52:20.183Z,58.19
2022-10-26T19:54:48.527Z,58.30
2022-10-26T19:57:16.904Z,58.21
2022-10-26T19:59:45.203Z,58.09
2022-10-26T20:02:13.466Z,57.20
2022-10-26T20:04:41.660Z,56.98
2022-10-26T20:07:10.003Z,57.26
2022-10-26T20:09:39.734Z,57.19
2022-10-26T20:12:12.742Z,55.21
2022-10-26T20:14:41.296Z,54.80
2022-10-26T20:17:09.508Z,54.43
2022-10-26T20:19:38.297Z,54.29
2022-10-26T20:22:06.566Z,54.08
2022-10-26T20:24:34.863Z,54.14
2022-10-26T20:27:04.965Z,55.18
2022-10-26T20:29:33.257Z,54.99
2022-10-26T20:32:01.638Z,55.37
2022-10-26T20:34:29.970Z,55.30
2022-10-26T20:36:58.180Z,55.33
2022-10-26T20:39:27.110Z,55.41
2022-10-26T20:41:55.943Z,55.15
2022-10-26T20:44:31.317Z,55.33
2022-10-26T20:47:01.125Z,55.33
2022-10-26T20:49:29.852Z,55.49
2022-10-26T20:52:21.885Z,55.38
2022-10-26T20:54:56.745Z,55.71
2022-10-26T20:57:33.055Z,55.79
2022-10-26T21:00:06.183Z,55.82
2022-10-26T21:02:34.577Z,55.62
2022-10-26T21:05:02.845Z,55.63
2022-10-26T21:07:31.043Z,56.08
2022-10-26T21:09:59.439Z,56.59
2022-10-26T21:12:27.704Z,56.51
2022-10-26T21:14:55.988Z,56.34
2022-10-26T21:17:25.734Z,56.33
2022-10-26T21:19:54.107Z,56.02
2022-10-26T21:22:23.008Z,56.53
2022-10-26T21:24:51.192Z,56.86
2022-10-26T21:27:19.497Z,56.95
2022-10-26T21:29:47.751Z,57.08
2022-10-26T21:32:16.233Z,57.39
2022-10-26T21:34:45.898Z,57.38
2022-10-26T21:37:14.202Z,57.43
2022-10-26T21:39:42.460Z,57.43
2022-10-26T21:42:10.957Z,57.47
2022-10-26T21:44:41.460Z,57.83
2022-10-26T21:47:10.349Z,57.84
2022-10-26T21:49:38.735Z,57.79
2022-10-26T21:52:08.952Z,58.22
2022-10-26T21:54:37.265Z,58.59
2022-10-26T21:57:05.717Z,61.05
2022-10-26T21:59:34.008Z,62.46
2022-10-26T22:02:02.537Z,61.34
2022-10-26T22:04:30.981Z,60.44
2022-10-26T22:06:59.251Z,61.39
2022-10-26T22:09:28.969Z,61.56
2022-10-26T22:11:57.352Z,61.42
2022-10-26T22:14:25.744Z,60.98
2022-10-26T22:16:54.028Z,60.99
2022-10-26T22:19:24.300Z,61.21
2022-10-26T22:21:52.592Z,60.88
2022-10-26T22:24:20.764Z,61.24
2022-10-26T22:26:50.484Z,60.78
2022-10-26T22:29:18.916Z,60.29
2022-10-26T22:31:47.136Z,60.72
2022-10-26T22:34:16.819Z,60.25
2022-10-26T22:36:45.317Z,60.18
2022-10-26T22:39:13.849Z,59.67
2022-10-26T22:41:42.108Z,60.54
2022-10-26T22:44:11.791Z,61.01
2022-10-26T22:46:40.117Z,60.04
2022-10-26T22:49:08.333Z,60.49
2022-10-26T22:51:36.699Z,60.85
2022-10-26T22:54:06.348Z,61.00
2022-10-26T22:56:36.231Z,61.34
2022-10-26T22:59:04.801Z,60.66
2022-10-26T23:01:37.809Z,61.48
2022-10-26T23:04:06.578Z,60.69
2022-10-26T23:06:35.356Z,60.90
2022-10-26T23:09:03.652Z,60.68
2022-10-26T23:11:32.057Z,60.94
2022-10-26T23:14:01.609Z,61.10
2022-10-26T23:16:30.985Z,60.67
2022-10-26T23:19:00.972Z,60.40
2022-10-26T23:21:29.759Z,60.79
2022-10-26T23:23:58.653Z,61.12
2022-10-26T23:26:26.964Z,61.28
2022-10-26T23:28:55.238Z,60.90
2022-10-26T23:31:25.747Z,60.88
2022-10-26T23:33:55.453Z,61.37
2022-10-26T23:36:25.287Z,62.02
2022-10-26T23:38:53.595Z,61.88
2022-10-26T23:41:21.888Z,62.09
2022-10-26T23:43:50.108Z,62.35
2022-10-26T23:46:18.493Z,63.04
2022-10-26T23:48:46.767Z,63.87
2022-10-26T23:51:15.072Z,63.27
2022-10-26T23:53:44.731Z,62.73
2022-10-26T23:56:12.917Z,62.52
2022-10-26T23:58:41.208Z,62.41
